sensor_id;sensor_type;location;lat;lon;timestamp;pressure;altitude;pressure_sealevel;temperature;humidity
64230;BME280;50547;49.498;0.092;2023-04-30T00:00:08;1018.55;;;12.10;76.80
64230;BME280;50547;49.498;0.092;2023-04-30T00:02:33;1018.49;;;12.05;76.80
64230;BME280;50547;49.498;0.092;2023-04-30T00:05:03;1018.53;;;12.13;76.53
64230;BME280;50547;49.498;0.092;2023-04-30T00:07:32;1018.49;;;12.19;76.12
64230;BME280;50547;49.498;0.092;2023-04-30T00:10:02;1018.55;;;12.18;76.21
64230;BME280;50547;49.498;0.092;2023-04-30T00:12:31;1018.43;;;12.20;76.32
64230;BME280;50547;49.498;0.092;2023-04-30T00:15:00;1018.49;;;12.20;76.22
64230;BME280;50547;49.498;0.092;2023-04-30T00:17:49;1018.49;;;12.20;76.26
64230;BME280;50547;49.498;0.092;2023-04-30T00:20:15;1018.45;;;12.14;76.37
64230;BME280;50547;49.498;0.092;2023-04-30T00:22:44;1018.51;;;12.15;76.30
64230;BME280;50547;49.498;0.092;2023-04-30T00:25:14;1018.51;;;12.10;76.43
64230;BME280;50547;49.498;0.092;2023-04-30T00:27:43;1018.47;;;12.06;76.44
64230;BME280;50547;49.498;0.092;2023-04-30T00:30:13;1018.47;;;12.10;76.37
64230;BME280;50547;49.498;0.092;2023-04-30T00:32:42;1018.45;;;12.13;76.07
64230;BME280;50547;49.498;0.092;2023-04-30T00:35:12;1018.36;;;12.11;76.01
64230;BME280;50547;49.498;0.092;2023-04-30T00:37:41;1018.40;;;12.06;76.18
64230;BME280;50547;49.498;0.092;2023-04-30T00:40:11;1018.40;;;12.12;75.92
64230;BME280;50547;49.498;0.092;2023-04-30T00:42:40;1018.38;;;12.14;75.76
64230;BME280;50547;49.498;0.092;2023-04-30T00:45:10;1018.38;;;12.14;75.67
64230;BME280;50547;49.498;0.092;2023-04-30T00:47:39;1018.38;;;12.11;75.87
64230;BME280;50547;49.498;0.092;2023-04-30T00:50:09;1018.36;;;12.14;75.75
64230;BME280;50547;49.498;0.092;2023-04-30T00:52:38;1018.40;;;12.10;75.92
64230;BME280;50547;49.498;0.092;2023-04-30T00:55:08;1018.36;;;12.10;75.78
64230;BME280;50547;49.498;0.092;2023-04-30T00:57:38;1018.40;;;12.09;75.77
64230;BME280;50547;49.498;0.092;2023-04-30T01:00:08;1018.43;;;12.15;75.47
64230;BME280;50547;49.498;0.092;2023-04-30T01:02:38;1018.42;;;12.10;75.74
64230;BME280;50547;49.498;0.092;2023-04-30T01:05:08;1018.43;;;12.16;75.47
64230;BME280;50547;49.498;0.092;2023-04-30T01:07:38;1018.43;;;12.22;75.23
64230;BME280;50547;49.498;0.092;2023-04-30T01:10:08;1018.42;;;12.25;75.07
64230;BME280;50547;49.498;0.092;2023-04-30T01:12:43;1018.45;;;12.25;75.15
64230;BME280;50547;49.498;0.092;2023-04-30T01:15:20;1018.47;;;12.25;75.19
64230;BME280;50547;49.498;0.092;2023-04-30T01:17:54;1018.43;;;12.17;75.72
64230;BME280;50547;49.498;0.092;2023-04-30T01:20:26;1018.36;;;12.19;75.61
64230;BME280;50547;49.498;0.092;2023-04-30T01:23:03;1018.36;;;12.22;75.38
64230;BME280;50547;49.498;0.092;2023-04-30T01:25:48;1018.36;;;12.19;75.50
64230;BME280;50547;49.498;0.092;2023-04-30T01:28:20;1018.38;;;12.27;75.13
64230;BME280;50547;49.498;0.092;2023-04-30T01:30:50;1018.27;;;12.11;75.80
64230;BME280;50547;49.498;0.092;2023-04-30T01:33:19;1018.27;;;12.06;76.26
64230;BME280;50547;49.498;0.092;2023-04-30T01:35:58;1018.21;;;12.01;76.31
64230;BME280;50547;49.498;0.092;2023-04-30T01:38:45;1018.27;;;12.06;76.09
64230;BME280;50547;49.498;0.092;2023-04-30T01:41:25;1018.36;;;12.02;76.40
64230;BME280;50547;49.498;0.092;2023-04-30T01:44:11;1018.36;;;12.02;76.21
64230;BME280;50547;49.498;0.092;2023-04-30T01:46:49;1018.25;;;11.99;76.40
64230;BME280;50547;49.498;0.092;2023-04-30T01:49:34;1018.36;;;11.98;76.54
64230;BME280;50547;49.498;0.092;2023-04-30T01:52:12;1018.23;;;12.12;75.80
64230;BME280;50547;49.498;0.092;2023-04-30T01:54:48;1018.25;;;12.13;75.73
64230;BME280;50547;49.498;0.092;2023-04-30T01:57:24;1018.25;;;12.12;75.69
64230;BME280;50547;49.498;0.092;2023-04-30T01:59:54;1018.25;;;11.97;76.51
64230;BME280;50547;49.498;0.092;2023-04-30T02:02:23;1018.25;;;11.99;76.44
64230;BME280;50547;49.498;0.092;2023-04-30T02:04:52;1018.36;;;12.04;76.25
64230;BME280;50547;49.498;0.092;2023-04-30T02:07:35;1018.36;;;12.03;76.20
64230;BME280;50547;49.498;0.092;2023-04-30T02:10:06;1018.38;;;11.96;76.53
64230;BME280;50547;49.498;0.092;2023-04-30T02:12:36;1018.38;;;11.94;76.64
64230;BME280;50547;49.498;0.092;2023-04-30T02:15:07;1018.38;;;11.88;76.97
64230;BME280;50547;49.498;0.092;2023-04-30T02:17:36;1018.36;;;11.79;77.28
64230;BME280;50547;49.498;0.092;2023-04-30T02:20:07;1018.25;;;11.77;77.24
64230;BME280;50547;49.498;0.092;2023-04-30T02:22:36;1018.23;;;11.69;77.58
64230;BME280;50547;49.498;0.092;2023-04-30T02:25:06;1018.25;;;11.70;77.36
64230;BME280;50547;49.498;0.092;2023-04-30T02:27:35;1018.36;;;11.73;77.17
64230;BME280;50547;49.498;0.092;2023-04-30T02:30:05;1018.27;;;11.72;77.32
64230;BME280;50547;49.498;0.092;2023-04-30T02:32:35;1018.25;;;11.69;77.41
64230;BME280;50547;49.498;0.092;2023-04-30T02:35:04;1018.17;;;11.45;78.56
64230;BME280;50547;49.498;0.092;2023-04-30T02:37:34;1018.21;;;11.43;78.66
64230;BME280;50547;49.498;0.092;2023-04-30T02:40:04;1018.23;;;11.37;78.77
64230;BME280;50547;49.498;0.092;2023-04-30T02:42:33;1018.27;;;11.41;78.61
64230;BME280;50547;49.498;0.092;2023-04-30T02:45:02;1018.36;;;11.46;78.13
64230;BME280;50547;49.498;0.092;2023-04-30T02:47:32;1018.36;;;11.48;78.01
64230;BME280;50547;49.498;0.092;2023-04-30T02:50:01;1018.36;;;11.43;78.12
64230;BME280;50547;49.498;0.092;2023-04-30T02:52:30;1018.38;;;11.38;78.40
64230;BME280;50547;49.498;0.092;2023-04-30T02:55:00;1018.38;;;11.35;78.36
64230;BME280;50547;49.498;0.092;2023-04-30T02:57:29;1018.36;;;11.36;78.33
64230;BME280;50547;49.498;0.092;2023-04-30T02:59:58;1018.36;;;11.43;77.82
64230;BME280;50547;49.498;0.092;2023-04-30T03:02:27;1018.36;;;11.43;77.92
64230;BME280;50547;49.498;0.092;2023-04-30T03:04:56;1018.36;;;11.42;78.09
64230;BME280;50547;49.498;0.092;2023-04-30T03:07:25;1018.40;;;11.52;77.53
64230;BME280;50547;49.498;0.092;2023-04-30T03:09:54;1018.36;;;11.49;77.78
64230;BME280;50547;49.498;0.092;2023-04-30T03:12:24;1018.25;;;11.53;77.69
64230;BME280;50547;49.498;0.092;2023-04-30T03:14:53;1018.23;;;11.51;77.72
64230;BME280;50547;49.498;0.092;2023-04-30T03:17:22;1018.25;;;11.49;77.74
64230;BME280;50547;49.498;0.092;2023-04-30T03:19:51;1018.25;;;11.50;77.73
64230;BME280;50547;49.498;0.092;2023-04-30T03:22:20;1018.25;;;11.47;77.80
64230;BME280;50547;49.498;0.092;2023-04-30T03:24:49;1018.25;;;11.27;78.08
64230;BME280;50547;49.498;0.092;2023-04-30T03:27:18;1018.23;;;11.21;78.41
64230;BME280;50547;49.498;0.092;2023-04-30T03:29:47;1018.21;;;11.21;78.38
64230;BME280;50547;49.498;0.092;2023-04-30T03:32:16;1018.19;;;11.17;78.50
64230;BME280;50547;49.498;0.092;2023-04-30T03:34:46;1018.25;;;11.24;78.08
64230;BME280;50547;49.498;0.092;2023-04-30T03:37:15;1018.19;;;11.22;78.13
64230;BME280;50547;49.498;0.092;2023-04-30T03:39:44;1018.21;;;11.17;78.64
64230;BME280;50547;49.498;0.092;2023-04-30T03:42:13;1018.23;;;11.15;78.37
64230;BME280;50547;49.498;0.092;2023-04-30T03:44:42;1018.23;;;10.97;78.85
64230;BME280;50547;49.498;0.092;2023-04-30T03:47:11;1018.21;;;10.95;78.98
64230;BME280;50547;49.498;0.092;2023-04-30T03:49:40;1018.25;;;10.86;79.40
64230;BME280;50547;49.498;0.092;2023-04-30T03:52:10;1018.25;;;10.82;79.53
64230;BME280;50547;49.498;0.092;2023-04-30T03:54:39;1018.25;;;10.84;79.36
64230;BME280;50547;49.498;0.092;2023-04-30T03:57:08;1018.25;;;10.82;79.63
64230;BME280;50547;49.498;0.092;2023-04-30T03:59:37;1018.21;;;10.85;79.38
64230;BME280;50547;49.498;0.092;2023-04-30T04:02:06;1018.23;;;10.93;78.96
64230;BME280;50547;49.498;0.092;2023-04-30T04:04:35;1018.23;;;10.92;78.93
64230;BME280;50547;49.498;0.092;2023-04-30T04:07:04;1018.23;;;10.99;78.62
64230;BME280;50547;49.498;0.092;2023-04-30T04:09:33;1018.23;;;11.10;78.11
64230;BME280;50547;49.498;0.092;2023-04-30T04:12:03;1018.19;;;11.11;78.12
64230;BME280;50547;49.498;0.092;2023-04-30T04:14:33;1018.23;;;11.08;78.33
64230;BME280;50547;49.498;0.092;2023-04-30T04:17:02;1018.23;;;11.13;78.07
64230;BME280;50547;49.498;0.092;2023-04-30T04:19:31;1018.25;;;11.24;77.69
64230;BME280;50547;49.498;0.092;2023-04-30T04:22:00;1018.25;;;11.16;78.26
64230;BME280;50547;49.498;0.092;2023-04-30T04:24:30;1018.25;;;11.14;78.32
64230;BME280;50547;49.498;0.092;2023-04-30T04:26:59;1018.25;;;11.15;78.37
64230;BME280;50547;49.498;0.092;2023-04-30T04:29:28;1018.27;;;11.12;78.47
64230;BME280;50547;49.498;0.092;2023-04-30T04:31:57;1018.38;;;10.90;79.28
64230;BME280;50547;49.498;0.092;2023-04-30T04:34:27;1018.40;;;10.83;79.58
64230;BME280;50547;49.498;0.092;2023-04-30T04:36:56;1018.40;;;10.81;79.45
64230;BME280;50547;49.498;0.092;2023-04-30T04:39:25;1018.38;;;10.80;79.31
64230;BME280;50547;49.498;0.092;2023-04-30T04:41:54;1018.42;;;10.78;79.33
64230;BME280;50547;49.498;0.092;2023-04-30T04:44:23;1018.43;;;10.78;79.23
64230;BME280;50547;49.498;0.092;2023-04-30T04:46:52;1018.45;;;10.99;78.31
64230;BME280;50547;49.498;0.092;2023-04-30T04:49:21;1018.47;;;11.03;78.03
64230;BME280;50547;49.498;0.092;2023-04-30T04:51:50;1018.47;;;11.03;78.26
64230;BME280;50547;49.498;0.092;2023-04-30T04:54:19;1018.45;;;11.05;78.25
64230;BME280;50547;49.498;0.092;2023-04-30T04:56:49;1018.43;;;10.97;78.51
64230;BME280;50547;49.498;0.092;2023-04-30T04:59:18;1018.45;;;10.96;78.48
64230;BME280;50547;49.498;0.092;2023-04-30T05:01:47;1018.43;;;11.05;78.14
64230;BME280;50547;49.498;0.092;2023-04-30T05:04:16;1018.43;;;11.10;77.92
64230;BME280;50547;49.498;0.092;2023-04-30T05:06:45;1018.43;;;11.14;77.84
64230;BME280;50547;49.498;0.092;2023-04-30T05:09:14;1018.43;;;11.11;77.99
64230;BME280;50547;49.498;0.092;2023-04-30T05:11:43;1018.42;;;11.12;78.04
64230;BME280;50547;49.498;0.092;2023-04-30T05:14:12;1018.43;;;11.22;77.46
64230;BME280;50547;49.498;0.092;2023-04-30T05:16:42;1018.47;;;11.27;77.41
64230;BME280;50547;49.498;0.092;2023-04-30T05:19:11;1018.45;;;11.35;77.21
64230;BME280;50547;49.498;0.092;2023-04-30T05:21:40;1018.53;;;11.27;77.37
64230;BME280;50547;49.498;0.092;2023-04-30T05:24:09;1018.53;;;11.28;77.51
64230;BME280;50547;49.498;0.092;2023-04-30T05:26:38;1018.55;;;11.39;77.12
64230;BME280;50547;49.498;0.092;2023-04-30T05:29:07;1018.57;;;11.47;76.80
64230;BME280;50547;49.498;0.092;2023-04-30T05:31:36;1018.53;;;11.40;77.12
64230;BME280;50547;49.498;0.092;2023-04-30T05:34:05;1018.59;;;11.69;76.12
64230;BME280;50547;49.498;0.092;2023-04-30T05:36:34;1018.65;;;11.75;76.03
64230;BME280;50547;49.498;0.092;2023-04-30T05:39:04;1018.61;;;12.07;75.32
64230;BME280;50547;49.498;0.092;2023-04-30T05:41:33;1018.63;;;12.24;74.88
64230;BME280;50547;49.498;0.092;2023-04-30T05:44:02;1018.63;;;12.41;74.30
64230;BME280;50547;49.498;0.092;2023-04-30T05:46:31;1018.59;;;12.70;73.63
64230;BME280;50547;49.498;0.092;2023-04-30T05:49:00;1018.57;;;12.45;74.24
64230;BME280;50547;49.498;0.092;2023-04-30T05:51:29;1018.61;;;12.61;73.70
64230;BME280;50547;49.498;0.092;2023-04-30T05:53:58;1018.65;;;12.96;72.44
64230;BME280;50547;49.498;0.092;2023-04-30T05:56:28;1018.65;;;13.15;71.68
64230;BME280;50547;49.498;0.092;2023-04-30T05:58:57;1018.65;;;13.26;71.29
64230;BME280;50547;49.498;0.092;2023-04-30T06:01:26;1018.61;;;13.29;71.16
64230;BME280;50547;49.498;0.092;2023-04-30T06:03:55;1018.57;;;13.03;72.46
64230;BME280;50547;49.498;0.092;2023-04-30T06:06:24;1018.55;;;12.91;72.91
64230;BME280;50547;49.498;0.092;2023-04-30T06:08:53;1018.53;;;12.93;72.84
64230;BME280;50547;49.498;0.092;2023-04-30T06:11:22;1018.55;;;12.85;73.13
64230;BME280;50547;49.498;0.092;2023-04-30T06:13:52;1018.59;;;12.96;72.93
64230;BME280;50547;49.498;0.092;2023-04-30T06:16:21;1018.59;;;13.16;72.28
64230;BME280;50547;49.498;0.092;2023-04-30T06:18:50;1018.63;;;13.38;71.53
64230;BME280;50547;49.498;0.092;2023-04-30T06:21:19;1018.61;;;13.32;71.84
64230;BME280;50547;49.498;0.092;2023-04-30T06:23:48;1018.59;;;13.52;71.63
64230;BME280;50547;49.498;0.092;2023-04-30T06:26:18;1018.57;;;13.48;71.68
64230;BME280;50547;49.498;0.092;2023-04-30T06:28:47;1018.63;;;13.38;72.52
64230;BME280;50547;49.498;0.092;2023-04-30T06:31:16;1018.61;;;13.50;72.18
64230;BME280;50547;49.498;0.092;2023-04-30T06:33:45;1018.69;;;13.88;71.09
64230;BME280;50547;49.498;0.092;2023-04-30T06:36:15;1018.63;;;13.99;70.40
64230;BME280;50547;49.498;0.092;2023-04-30T06:38:45;1018.67;;;14.01;70.16
64230;BME280;50547;49.498;0.092;2023-04-30T06:41:14;1018.69;;;14.10;70.03
64230;BME280;50547;49.498;0.092;2023-04-30T06:43:43;1018.69;;;14.12;70.14
64230;BME280;50547;49.498;0.092;2023-04-30T06:46:12;1018.73;;;13.80;71.92
64230;BME280;50547;49.498;0.092;2023-04-30T06:48:41;1018.71;;;13.62;72.55
64230;BME280;50547;49.498;0.092;2023-04-30T06:51:11;1018.73;;;13.71;72.26
64230;BME280;50547;49.498;0.092;2023-04-30T06:53:40;1018.73;;;13.92;71.18
64230;BME280;50547;49.498;0.092;2023-04-30T06:56:09;1018.77;;;14.34;69.86
64230;BME280;50547;49.498;0.092;2023-04-30T06:58:38;1018.75;;;14.53;69.22
64230;BME280;50547;49.498;0.092;2023-04-30T07:01:07;1018.75;;;14.17;69.90
64230;BME280;50547;49.498;0.092;2023-04-30T07:03:37;1018.79;;;14.30;69.49
64230;BME280;50547;49.498;0.092;2023-04-30T07:06:06;1018.81;;;14.42;68.71
64230;BME280;50547;49.498;0.092;2023-04-30T07:08:35;1018.77;;;14.35;69.09
64230;BME280;50547;49.498;0.092;2023-04-30T07:11:04;1018.77;;;14.55;68.53
64230;BME280;50547;49.498;0.092;2023-04-30T07:13:33;1018.75;;;14.58;68.49
64230;BME280;50547;49.498;0.092;2023-04-30T07:16:03;1018.77;;;14.57;68.53
64230;BME280;50547;49.498;0.092;2023-04-30T07:18:32;1018.75;;;14.56;68.61
64230;BME280;50547;49.498;0.092;2023-04-30T07:21:01;1018.77;;;14.41;68.82
64230;BME280;50547;49.498;0.092;2023-04-30T07:23:30;1018.77;;;14.59;68.35
64230;BME280;50547;49.498;0.092;2023-04-30T07:26:00;1018.77;;;14.70;67.77
64230;BME280;50547;49.498;0.092;2023-04-30T07:28:29;1018.73;;;15.06;66.84
64230;BME280;50547;49.498;0.092;2023-04-30T07:30:58;1018.71;;;15.24;66.46
64230;BME280;50547;49.498;0.092;2023-04-30T07:33:27;1018.69;;;15.48;65.28
64230;BME280;50547;49.498;0.092;2023-04-30T07:35:56;1018.65;;;15.24;66.11
64230;BME280;50547;49.498;0.092;2023-04-30T07:38:25;1018.73;;;15.10;66.99
64230;BME280;50547;49.498;0.092;2023-04-30T07:40:54;1018.71;;;15.38;66.04
64230;BME280;50547;49.498;0.092;2023-04-30T07:43:24;1018.71;;;15.35;66.19
64230;BME280;50547;49.498;0.092;2023-04-30T07:45:53;1018.71;;;15.51;65.75
64230;BME280;50547;49.498;0.092;2023-04-30T07:48:22;1018.71;;;15.82;64.76
64230;BME280;50547;49.498;0.092;2023-04-30T07:50:51;1018.73;;;15.95;64.40
64230;BME280;50547;49.498;0.092;2023-04-30T07:53:20;1018.71;;;16.27;63.34
64230;BME280;50547;49.498;0.092;2023-04-30T07:55:49;1018.67;;;16.34;63.22
64230;BME280;50547;49.498;0.092;2023-04-30T07:58:19;1018.73;;;16.29;63.98
64230;BME280;50547;49.498;0.092;2023-04-30T08:00:48;1018.77;;;16.43;63.58
64230;BME280;50547;49.498;0.092;2023-04-30T08:03:17;1018.75;;;16.89;62.51
64230;BME280;50547;49.498;0.092;2023-04-30T08:05:46;1018.73;;;17.00;61.85
64230;BME280;50547;49.498;0.092;2023-04-30T08:08:15;1018.67;;;17.19;61.41
64230;BME280;50547;49.498;0.092;2023-04-30T08:10:44;1018.69;;;17.33;61.06
64230;BME280;50547;49.498;0.092;2023-04-30T08:13:13;1018.69;;;17.05;62.26
64230;BME280;50547;49.498;0.092;2023-04-30T08:15:42;1018.67;;;17.05;62.31
64230;BME280;50547;49.498;0.092;2023-04-30T08:18:11;1018.73;;;17.37;61.39
64230;BME280;50547;49.498;0.092;2023-04-30T08:20:41;1018.71;;;17.57;60.71
64230;BME280;50547;49.498;0.092;2023-04-30T08:23:10;1018.73;;;17.51;60.74
64230;BME280;50547;49.498;0.092;2023-04-30T08:25:39;1018.73;;;17.61;60.73
64230;BME280;50547;49.498;0.092;2023-04-30T08:28:08;1018.79;;;17.95;59.87
64230;BME280;50547;49.498;0.092;2023-04-30T08:30:37;1018.79;;;18.04;59.80
64230;BME280;50547;49.498;0.092;2023-04-30T08:33:07;1018.81;;;18.30;58.92
64230;BME280;50547;49.498;0.092;2023-04-30T08:35:36;1018.79;;;18.22;59.04
64230;BME280;50547;49.498;0.092;2023-04-30T08:38:05;1018.81;;;18.07;59.69
64230;BME280;50547;49.498;0.092;2023-04-30T08:40:35;1018.81;;;17.77;61.01
64230;BME280;50547;49.498;0.092;2023-04-30T08:43:06;1018.79;;;17.79;60.76
64230;BME280;50547;49.498;0.092;2023-04-30T08:45:36;1018.79;;;17.78;60.88
64230;BME280;50547;49.498;0.092;2023-04-30T08:48:09;1018.79;;;17.71;61.21
64230;BME280;50547;49.498;0.092;2023-04-30T08:50:39;1018.75;;;17.71;61.25
64230;BME280;50547;49.498;0.092;2023-04-30T08:53:09;1018.71;;;17.74;61.04
64230;BME280;50547;49.498;0.092;2023-04-30T08:55:39;1018.69;;;17.93;60.44
64230;BME280;50547;49.498;0.092;2023-04-30T08:58:08;1018.69;;;18.13;59.33
64230;BME280;50547;49.498;0.092;2023-04-30T09:00:38;1018.69;;;18.30;59.05
64230;BME280;50547;49.498;0.092;2023-04-30T09:03:07;1018.63;;;18.39;58.81
64230;BME280;50547;49.498;0.092;2023-04-30T09:05:36;1018.61;;;18.56;58.43
64230;BME280;50547;49.498;0.092;2023-04-30T09:08:06;1018.53;;;18.60;58.05
64230;BME280;50547;49.498;0.092;2023-04-30T09:10:35;1018.55;;;18.70;57.96
64230;BME280;50547;49.498;0.092;2023-04-30T09:13:06;1018.55;;;18.52;58.64
64230;BME280;50547;49.498;0.092;2023-04-30T09:15:37;1018.61;;;18.77;58.38
64230;BME280;50547;49.498;0.092;2023-04-30T09:18:08;1018.55;;;18.95;56.77
64230;BME280;50547;49.498;0.092;2023-04-30T09:20:53;1018.53;;;19.03;57.04
64230;BME280;50547;49.498;0.092;2023-04-30T09:23:23;1018.59;;;19.35;55.56
64230;BME280;50547;49.498;0.092;2023-04-30T09:25:52;1018.55;;;19.69;55.54
64230;BME280;50547;49.498;0.092;2023-04-30T09:28:22;1018.51;;;19.53;55.78
64230;BME280;50547;49.498;0.092;2023-04-30T09:30:52;1018.51;;;19.14;57.34
64230;BME280;50547;49.498;0.092;2023-04-30T09:33:22;1018.53;;;19.49;56.54
64230;BME280;50547;49.498;0.092;2023-04-30T09:35:51;1018.49;;;19.65;55.65
64230;BME280;50547;49.498;0.092;2023-04-30T09:38:29;1018.45;;;19.29;55.87
64230;BME280;50547;49.498;0.092;2023-04-30T09:40:59;1018.49;;;19.48;55.25
64230;BME280;50547;49.498;0.092;2023-04-30T09:43:30;1018.43;;;19.78;53.87
64230;BME280;50547;49.498;0.092;2023-04-30T09:45:59;1018.43;;;19.74;53.77
64230;BME280;50547;49.498;0.092;2023-04-30T09:48:28;1018.45;;;19.91;53.16
64230;BME280;50547;49.498;0.092;2023-04-30T09:50:57;1018.43;;;20.14;52.67
64230;BME280;50547;49.498;0.092;2023-04-30T09:53:26;1018.38;;;20.07;52.64
64230;BME280;50547;49.498;0.092;2023-04-30T09:55:57;1018.36;;;20.00;54.04
64230;BME280;50547;49.498;0.092;2023-04-30T09:58:30;1018.27;;;20.14;53.06
64230;BME280;50547;49.498;0.092;2023-04-30T10:01:04;1018.27;;;19.98;53.87
64230;BME280;50547;49.498;0.092;2023-04-30T10:03:44;1018.38;;;20.13;53.60
64230;BME280;50547;49.498;0.092;2023-04-30T10:06:14;1018.36;;;20.19;53.61
64230;BME280;50547;49.498;0.092;2023-04-30T10:08:46;1018.36;;;20.51;52.44
64230;BME280;50547;49.498;0.092;2023-04-30T10:11:25;1018.19;;;20.62;51.82
64230;BME280;50547;49.498;0.092;2023-04-30T10:13:59;1018.25;;;20.46;53.13
64230;BME280;50547;49.498;0.092;2023-04-30T10:16:35;1018.17;;;20.64;52.87
64230;BME280;50547;49.498;0.092;2023-04-30T10:19:10;1018.15;;;20.79;52.00
64230;BME280;50547;49.498;0.092;2023-04-30T10:21:44;1018.09;;;21.21;51.45
64230;BME280;50547;49.498;0.092;2023-04-30T10:24:15;1018.03;;;21.09;51.11
64230;BME280;50547;49.498;0.092;2023-04-30T10:26:45;1018.01;;;20.89;51.80
64230;BME280;50547;49.498;0.092;2023-04-30T10:29:16;1018.05;;;20.68;52.74
64230;BME280;50547;49.498;0.092;2023-04-30T10:31:47;1018.03;;;20.99;51.88
64230;BME280;50547;49.498;0.092;2023-04-30T10:34:24;1017.96;;;20.95;51.23
64230;BME280;50547;49.498;0.092;2023-04-30T10:36:55;1017.96;;;21.07;50.89
64230;BME280;50547;49.498;0.092;2023-04-30T10:39:26;1017.96;;;21.06;50.65
64230;BME280;50547;49.498;0.092;2023-04-30T10:42:04;1017.94;;;21.21;50.69
64230;BME280;50547;49.498;0.092;2023-04-30T10:44:35;1017.84;;;21.22;50.70
64230;BME280;50547;49.498;0.092;2023-04-30T10:47:06;1017.86;;;20.93;51.81
64230;BME280;50547;49.498;0.092;2023-04-30T10:49:35;1017.82;;;20.78;52.06
64230;BME280;50547;49.498;0.092;2023-04-30T10:52:05;1017.80;;;20.52;52.37
64230;BME280;50547;49.498;0.092;2023-04-30T10:54:35;1017.76;;;20.90;51.91
64230;BME280;50547;49.498;0.092;2023-04-30T10:57:09;1017.80;;;21.25;49.56
64230;BME280;50547;49.498;0.092;2023-04-30T10:59:35;1017.78;;;21.45;48.28
64230;BME280;50547;49.498;0.092;2023-04-30T11:02:05;1017.76;;;21.49;48.20
64230;BME280;50547;49.498;0.092;2023-04-30T11:05:08;1017.80;;;20.97;52.76
64230;BME280;50547;49.498;0.092;2023-04-30T11:07:45;1017.78;;;20.67;58.09
64230;BME280;50547;49.498;0.092;2023-04-30T11:10:16;1017.84;;;20.09;58.54
64230;BME280;50547;49.498;0.092;2023-04-30T11:12:50;1017.82;;;19.96;58.22
64230;BME280;50547;49.498;0.092;2023-04-30T11:15:20;1017.80;;;19.08;62.23
64230;BME280;50547;49.498;0.092;2023-04-30T11:17:56;1017.72;;;18.92;62.19
64230;BME280;50547;49.498;0.092;2023-04-30T11:20:26;1017.74;;;18.10;65.56
64230;BME280;50547;49.498;0.092;2023-04-30T11:23:09;1017.76;;;18.39;63.75
64230;BME280;50547;49.498;0.092;2023-04-30T11:25:39;1017.74;;;18.00;65.23
64230;BME280;50547;49.498;0.092;2023-04-30T11:28:13;1017.72;;;18.09;63.80
64230;BME280;50547;49.498;0.092;2023-04-30T11:30:50;1017.66;;;18.76;61.48
64230;BME280;50547;49.498;0.092;2023-04-30T11:33:20;1017.66;;;18.48;61.23
64230;BME280;50547;49.498;0.092;2023-04-30T11:35:50;1017.66;;;18.59;62.26
64230;BME280;50547;49.498;0.092;2023-04-30T11:38:20;1017.68;;;18.21;63.21
64230;BME280;50547;49.498;0.092;2023-04-30T11:40:50;1017.66;;;18.27;63.45
64230;BME280;50547;49.498;0.092;2023-04-30T11:43:21;1017.64;;;18.37;62.64
64230;BME280;50547;49.498;0.092;2023-04-30T11:46:08;1017.62;;;18.41;62.29
64230;BME280;50547;49.498;0.092;2023-04-30T11:48:39;1017.60;;;18.61;60.67
64230;BME280;50547;49.498;0.092;2023-04-30T11:51:16;1017.53;;;19.11;59.65
64230;BME280;50547;49.498;0.092;2023-04-30T11:53:47;1017.57;;;19.32;58.96
64230;BME280;50547;49.498;0.092;2023-04-30T11:56:17;1017.58;;;19.47;58.46
64230;BME280;50547;49.498;0.092;2023-04-30T11:58:47;1017.57;;;19.54;58.54
64230;BME280;50547;49.498;0.092;2023-04-30T12:01:17;1017.55;;;19.97;58.64
64230;BME280;50547;49.498;0.092;2023-04-30T12:03:48;1017.53;;;19.71;58.13
64230;BME280;50547;49.498;0.092;2023-04-30T12:06:22;1017.49;;;20.06;58.85
64230;BME280;50547;49.498;0.092;2023-04-30T12:08:52;1017.47;;;19.67;58.28
64230;BME280;50547;49.498;0.092;2023-04-30T12:11:22;1017.43;;;19.33;60.26
64230;BME280;50547;49.498;0.092;2023-04-30T12:13:53;1017.41;;;19.92;57.13
64230;BME280;50547;49.498;0.092;2023-04-30T12:16:23;1017.35;;;20.62;55.19
64230;BME280;50547;49.498;0.092;2023-04-30T12:18:52;1017.37;;;21.03;55.39
64230;BME280;50547;49.498;0.092;2023-04-30T12:21:22;1017.39;;;21.53;52.65
64230;BME280;50547;49.498;0.092;2023-04-30T12:23:51;1017.33;;;21.67;53.37
64230;BME280;50547;49.498;0.092;2023-04-30T12:26:17;1017.25;;;22.08;52.42
64230;BME280;50547;49.498;0.092;2023-04-30T12:28:47;1017.23;;;22.29;52.08
64230;BME280;50547;49.498;0.092;2023-04-30T12:31:17;1017.17;;;21.05;57.13
64230;BME280;50547;49.498;0.092;2023-04-30T12:33:54;1017.15;;;20.85;57.00
64230;BME280;50547;49.498;0.092;2023-04-30T12:36:29;1017.17;;;20.74;59.37
64230;BME280;50547;49.498;0.092;2023-04-30T12:39:15;1017.15;;;21.19;55.58
64230;BME280;50547;49.498;0.092;2023-04-30T12:41:45;1017.11;;;21.17;55.77
64230;BME280;50547;49.498;0.092;2023-04-30T12:44:17;1017.06;;;20.30;58.38
64230;BME280;50547;49.498;0.092;2023-04-30T12:46:48;1017.13;;;20.42;58.17
64230;BME280;50547;49.498;0.092;2023-04-30T12:49:22;1017.10;;;20.26;57.96
64230;BME280;50547;49.498;0.092;2023-04-30T12:51:56;1017.04;;;20.40;56.97
64230;BME280;50547;49.498;0.092;2023-04-30T12:54:27;1017.06;;;20.86;55.62
64230;BME280;50547;49.498;0.092;2023-04-30T12:56:59;1017.04;;;21.40;53.97
64230;BME280;50547;49.498;0.092;2023-04-30T12:59:28;1017.08;;;21.68;53.10
64230;BME280;50547;49.498;0.092;2023-04-30T13:02:07;1017.06;;;21.49;52.69
64230;BME280;50547;49.498;0.092;2023-04-30T13:04:39;1017.04;;;21.63;54.54
64230;BME280;50547;49.498;0.092;2023-04-30T13:07:06;1017.06;;;22.34;51.59
64230;BME280;50547;49.498;0.092;2023-04-30T13:09:36;1017.04;;;22.55;51.07
64230;BME280;50547;49.498;0.092;2023-04-30T13:12:05;1017.08;;;22.31;52.72
64230;BME280;50547;49.498;0.092;2023-04-30T13:14:35;1017.11;;;21.66;56.29
64230;BME280;50547;49.498;0.092;2023-04-30T13:17:04;1017.11;;;21.24;56.62
64230;BME280;50547;49.498;0.092;2023-04-30T13:19:34;1017.11;;;20.58;59.35
64230;BME280;50547;49.498;0.092;2023-04-30T13:22:03;1017.08;;;20.55;58.71
64230;BME280;50547;49.498;0.092;2023-04-30T13:24:32;1017.08;;;19.94;58.89
64230;BME280;50547;49.498;0.092;2023-04-30T13:27:02;1017.10;;;19.66;59.01